createdAt,value
2019-01-27T00:00:23.453Z,0.00
2019-01-27T00:01:23.434Z,0.00
2019-01-27T00:02:23.430Z,0.00
2019-01-27T00:03:23.398Z,0.00
2019-01-27T00:04:23.366Z,0.00
2019-01-27T00:05:23.357Z,0.00
2019-01-27T00:06:23.323Z,0.00
2019-01-27T00:07:23.302Z,0.00
2019-01-27T00:08:23.301Z,0.00
2019-01-27T00:09:23.261Z,0.00
2019-01-27T00:10:23.255Z,0.00
2019-01-27T00:11:23.217Z,0.00
2019-01-27T00:12:23.201Z,0.00
2019-01-27T00:13:23.178Z,0.00
2019-01-27T00:14:23.162Z,0.00
2019-01-27T00:15:23.135Z,0.00
2019-01-27T00:16:23.124Z,0.00
2019-01-27T00:17:23.086Z,0.00
2019-01-27T00:18:23.072Z,0.00
2019-01-27T00:19:23.051Z,0.00
2019-01-27T00:20:23.044Z,0.00
2019-01-27T00:21:24.702Z,0.00
2019-01-27T00:22:22.991Z,0.00
2019-01-27T00:23:22.966Z,0.00
2019-01-27T00:24:22.942Z,0.00
2019-01-27T00:25:22.925Z,0.00
2019-01-27T00:26:22.925Z,0.00
2019-01-27T00:27:22.878Z,0.00
2019-01-27T00:28:22.870Z,0.00
2019-01-27T00:29:22.835Z,0.00
2019-01-27T00:30:22.817Z,0.00
2019-01-27T00:31:22.807Z,0.00
2019-01-27T00:32:22.775Z,0.00
2019-01-27T00:33:22.769Z,0.00
2019-01-27T00:34:22.731Z,0.00
2019-01-27T00:35:22.710Z,0.00
2019-01-27T00:36:22.693Z,0.00
2019-01-27T00:37:22.671Z,0.00
2019-01-27T00:38:22.668Z,0.00
2019-01-27T00:39:22.634Z,0.00
2019-01-27T00:40:22.606Z,0.00
2019-01-27T00:41:22.591Z,0.00
2019-01-27T00:42:22.589Z,0.00
2019-01-27T00:43:22.546Z,0.00
2019-01-27T00:44:22.516Z,0.00
2019-01-27T00:45:22.523Z,0.00
2019-01-27T00:46:22.474Z,0.00
2019-01-27T00:47:23.210Z,0.00
2019-01-27T00:48:22.456Z,0.00
2019-01-27T00:49:22.413Z,0.00
2019-01-27T00:50:22.398Z,0.00
2019-01-27T00:51:22.380Z,0.00
2019-01-27T00:52:22.352Z,0.00
2019-01-27T00:53:22.354Z,0.00
2019-01-27T00:54:22.322Z,0.00
2019-01-27T00:55:22.288Z,0.00
2019-01-27T00:56:22.266Z,0.00
2019-01-27T00:57:22.282Z,0.00
2019-01-27T00:58:22.226Z,0.00
2019-01-27T00:59:22.208Z,0.00
2019-01-27T01:00:22.196Z,0.00
2019-01-27T01:01:22.160Z,0.00
2019-01-27T01:02:22.135Z,0.00
2019-01-27T01:03:22.114Z,0.00
2019-01-27T01:04:22.098Z,0.00
2019-01-27T01:05:22.078Z,0.00
2019-01-27T01:06:22.070Z,0.00
2019-01-27T01:07:22.035Z,0.00
2019-01-27T01:08:22.013Z,0.00
2019-01-27T01:09:21.992Z,0.00
2019-01-27T01:10:21.966Z,0.00
2019-01-27T01:11:21.948Z,0.00
2019-01-27T01:12:21.948Z,0.00
2019-01-27T01:13:21.908Z,0.00
2019-01-27T01:14:21.886Z,0.00
2019-01-27T01:15:21.865Z,0.00
2019-01-27T01:16:21.842Z,0.00
2019-01-27T01:17:21.839Z,0.00
2019-01-27T01:18:21.811Z,0.00
2019-01-27T01:19:22.749Z,0.00
2019-01-27T01:20:21.775Z,0.00
2019-01-27T01:21:21.738Z,0.00
2019-01-27T01:22:21.714Z,0.00
2019-01-27T01:23:21.692Z,0.00
2019-01-27T01:24:21.696Z,0.00
2019-01-27T01:25:21.651Z,0.00
2019-01-27T01:26:21.632Z,0.00
2019-01-27T01:27:21.622Z,0.00
2019-01-27T01:28:21.587Z,0.00
2019-01-27T01:29:21.566Z,0.00
2019-01-27T01:30:21.542Z,0.00
2019-01-27T01:31:21.524Z,0.00
2019-01-27T01:32:21.531Z,0.00
2019-01-27T01:33:21.480Z,0.00
2019-01-27T01:34:22.255Z,0.00
2019-01-27T01:35:21.432Z,0.00
2019-01-27T01:36:21.415Z,0.00
2019-01-27T01:37:22.211Z,0.00
2019-01-27T01:38:21.395Z,0.00
2019-01-27T01:39:22.295Z,0.00
2019-01-27T01:40:21.331Z,0.00
2019-01-27T01:41:21.310Z,0.00
2019-01-27T01:42:21.311Z,0.00
2019-01-27T01:43:21.268Z,0.00
2019-01-27T01:44:21.249Z,0.00
2019-01-27T01:45:21.233Z,0.00
2019-01-27T01:46:21.214Z,0.00
2019-01-27T01:47:21.202Z,0.00
2019-01-27T01:48:21.160Z,0.00
2019-01-27T01:49:21.140Z,0.00
2019-01-27T01:50:21.141Z,0.00
2019-01-27T01:51:21.091Z,0.00
2019-01-27T01:52:21.077Z,0.00
2019-01-27T01:53:21.055Z,0.00
2019-01-27T01:54:21.039Z,0.00
2019-01-27T01:55:21.032Z,0.00
2019-01-27T01:56:21.007Z,0.00
2019-01-27T01:57:20.964Z,0.00
2019-01-27T01:58:20.947Z,0.00
2019-01-27T01:59:20.925Z,0.00
2019-01-27T02:00:20.922Z,0.00
2019-01-27T02:01:20.895Z,0.00
2019-01-27T02:02:20.860Z,0.00
2019-01-27T02:03:20.857Z,0.00
2019-01-27T02:04:20.818Z,0.00
2019-01-27T02:05:20.798Z,0.00
2019-01-27T02:06:20.782Z,0.00
2019-01-27T02:07:20.752Z,0.00
2019-01-27T02:08:20.731Z,0.00
2019-01-27T02:09:20.725Z,0.00
2019-01-27T02:10:20.694Z,0.00
2019-01-27T02:11:20.672Z,0.00
2019-01-27T02:12:20.667Z,0.00
2019-01-27T02:13:20.631Z,0.00
2019-01-27T02:14:20.618Z,0.00
2019-01-27T02:15:20.586Z,0.00
2019-01-27T02:16:20.568Z,0.00
2019-01-27T02:17:20.592Z,0.00
2019-01-27T02:18:20.542Z,0.00
2019-01-27T02:19:20.499Z,0.00
2019-01-27T02:20:20.482Z,0.00
2019-01-27T02:21:20.456Z,0.00
2019-01-27T02:22:20.438Z,0.00
2019-01-27T02:23:20.424Z,0.00
2019-01-27T02:24:20.407Z,0.00
2019-01-27T02:25:20.371Z,0.00
2019-01-27T02:26:20.352Z,0.00
2019-01-27T02:27:20.331Z,0.00
2019-01-27T02:28:20.310Z,0.00
2019-01-27T02:29:20.303Z,0.00
2019-01-27T02:30:20.274Z,0.00
2019-01-27T02:31:20.247Z,0.00
2019-01-27T02:32:20.227Z,0.00
2019-01-27T02:33:20.219Z,0.00
2019-01-27T02:34:20.184Z,0.00
2019-01-27T02:35:20.247Z,0.00
2019-01-27T02:36:20.141Z,0.00
2019-01-27T02:37:20.119Z,0.00
2019-01-27T02:38:20.100Z,0.00
2019-01-27T02:39:20.100Z,0.00
2019-01-27T02:40:20.076Z,0.00
2019-01-27T02:41:20.036Z,0.00
2019-01-27T02:42:20.021Z,0.00
2019-01-27T02:43:19.992Z,0.00
2019-01-27T02:44:19.971Z,0.00
2019-01-27T02:45:19.947Z,0.00
2019-01-27T02:46:19.943Z,0.00
2019-01-27T02:47:19.903Z,0.00
2019-01-27T02:48:19.883Z,0.00
2019-01-27T02:49:19.867Z,0.00
2019-01-27T02:50:19.845Z,0.00
2019-01-27T02:51:19.822Z,0.00
2019-01-27T02:52:19.817Z,0.00
2019-01-27T02:53:19.778Z,0.00
2019-01-27T02:54:19.761Z,0.00
2019-01-27T02:55:19.735Z,0.00
2019-01-27T02:56:19.713Z,0.00
2019-01-27T02:57:19.750Z,0.00
2019-01-27T02:58:19.699Z,0.00
2019-01-27T02:59:19.659Z,0.00
2019-01-27T03:00:19.633Z,0.00
2019-01-27T03:01:19.608Z,0.00
2019-01-27T03:02:19.612Z,0.00
2019-01-27T03:03:19.575Z,0.00
2019-01-27T03:04:19.544Z,0.00
2019-01-27T03:05:19.525Z,0.00
2019-01-27T03:06:19.506Z,0.00
2019-01-27T03:07:19.485Z,0.00
2019-01-27T03:08:19.484Z,0.00
2019-01-27T03:09:19.451Z,0.00
2019-01-27T03:10:19.425Z,0.00
2019-01-27T03:11:19.401Z,0.00
2019-01-27T03:12:19.378Z,0.00
2019-01-27T03:13:19.375Z,0.00
2019-01-27T03:14:19.336Z,0.00
2019-01-27T03:15:19.318Z,0.00
2019-01-27T03:16:19.294Z,0.00
2019-01-27T03:17:19.287Z,0.00
2019-01-27T03:18:19.276Z,0.00
2019-01-27T03:19:19.234Z,0.00
2019-01-27T03:20:19.208Z,0.00
2019-01-27T03:21:19.190Z,0.00
2019-01-27T03:22:19.168Z,0.00
2019-01-27T03:23:19.154Z,0.00
2019-01-27T03:24:19.145Z,0.00
2019-01-27T03:25:19.105Z,0.00
2019-01-27T03:26:19.083Z,0.00
2019-01-27T03:27:19.064Z,0.00
2019-01-27T03:28:19.039Z,0.00
2019-01-27T03:29:19.044Z,0.00
2019-01-27T03:30:19.025Z,0.00
2019-01-27T03:31:19.011Z,0.00
2019-01-27T03:32:18.962Z,0.00
2019-01-27T03:33:18.958Z,0.00
2019-01-27T03:34:18.916Z,0.00
2019-01-27T03:35:18.894Z,0.00
2019-01-27T03:36:18.892Z,0.00
2019-01-27T03:37:18.853Z,0.00
2019-01-27T03:38:18.825Z,0.00
2019-01-27T03:39:18.814Z,0.00
2019-01-27T03:40:18.814Z,0.00
2019-01-27T03:41:18.774Z,0.00
2019-01-27T03:42:18.745Z,0.00
2019-01-27T03:43:18.744Z,0.00
2019-01-27T03:44:18.705Z,0.00
2019-01-27T03:45:18.685Z,0.00
2019-01-27T03:46:18.666Z,0.00
2019-01-27T03:47:18.645Z,0.00
2019-01-27T03:48:18.619Z,0.00
2019-01-27T03:49:18.618Z,0.00
2019-01-27T03:50:18.580Z,0.00
2019-01-27T03:51:18.575Z,0.00
2019-01-27T03:52:18.538Z,0.00
2019-01-27T03:53:18.518Z,0.00
2019-01-27T03:54:18.496Z,0.00
2019-01-27T03:55:18.489Z,0.00
2019-01-27T03:56:18.458Z,0.00
2019-01-27T03:57:18.442Z,0.00
2019-01-27T03:58:18.413Z,0.00
2019-01-27T03:59:18.395Z,0.00
2019-01-27T04:00:18.369Z,0.00
2019-01-27T04:01:18.369Z,0.00
2019-01-27T04:02:18.350Z,0.00
2019-01-27T04:03:18.313Z,0.00
2019-01-27T04:04:18.292Z,0.00
2019-01-27T04:05:18.270Z,0.00
2019-01-27T04:06:18.255Z,0.00
2019-01-27T04:07:18.241Z,0.00
2019-01-27T04:08:18.221Z,0.00
2019-01-27T04:09:18.184Z,0.00
2019-01-27T04:10:18.164Z,0.00
2019-01-27T04:11:18.141Z,0.00
2019-01-27T04:12:18.141Z,0.00
2019-01-27T04:13:18.101Z,0.00
2019-01-27T04:14:18.125Z,0.00
2019-01-27T04:15:18.058Z,0.00
2019-01-27T04:16:18.037Z,0.00
2019-01-27T04:17:18.018Z,0.00
2019-01-27T04:18:18.016Z,0.00
2019-01-27T04:19:17.976Z,0.00
2019-01-27T04:20:17.954Z,0.00
2019-01-27T04:21:17.935Z,0.00
2019-01-27T04:22:17.915Z,0.00
2019-01-27T04:23:17.909Z,0.00
2019-01-27T04:24:17.871Z,0.00
2019-01-27T04:25:17.854Z,0.00
2019-01-27T04:26:17.829Z,0.00
2019-01-27T04:27:17.808Z,0.00
2019-01-27T04:28:17.803Z,0.00
2019-01-27T04:29:17.784Z,0.00
2019-01-27T04:30:17.753Z,0.00
2019-01-27T04:31:17.736Z,0.00
2019-01-27T04:32:17.702Z,0.00
2019-01-27T04:33:17.685Z,0.00
2019-01-27T04:34:17.661Z,0.00
2019-01-27T04:35:17.657Z,0.00
2019-01-27T04:36:17.621Z,0.00
2019-01-27T04:37:17.602Z,0.00
2019-01-27T04:38:17.579Z,0.00
2019-01-27T04:39:17.572Z,0.00
2019-01-27T04:40:17.543Z,0.00
2019-01-27T04:41:17.536Z,0.00
2019-01-27T04:42:17.501Z,0.00
2019-01-27T04:43:17.480Z,0.00
2019-01-27T04:44:17.469Z,0.00
2019-01-27T04:45:17.442Z,0.00
2019-01-27T04:46:17.418Z,0.00
2019-01-27T04:47:17.395Z,0.00
2019-01-27T04:48:17.374Z,0.00
2019-01-27T04:49:17.385Z,0.00
2019-01-27T04:50:17.328Z,0.00
2019-01-27T04:51:17.318Z,0.00
2019-01-27T04:52:17.287Z,0.00
2019-01-27T04:53:17.271Z,0.00
2019-01-27T04:54:17.248Z,0.00
2019-01-27T04:55:17.241Z,0.00
2019-01-27T04:56:17.204Z,0.00
2019-01-27T04:57:17.185Z,0.00
2019-01-27T04:58:17.167Z,0.00
2019-01-27T04:59:17.144Z,0.00
2019-01-27T05:00:17.142Z,0.00
2019-01-27T05:01:17.100Z,0.00
2019-01-27T05:02:17.086Z,0.00
2019-01-27T05:03:17.060Z,0.00
2019-01-27T05:04:17.040Z,0.00
2019-01-27T05:05:17.024Z,0.00
2019-01-27T05:06:17.017Z,0.00
2019-01-27T05:07:16.978Z,0.00
2019-01-27T05:08:16.957Z,0.00
2019-01-27T05:09:16.937Z,0.00
2019-01-27T05:10:16.914Z,0.00
2019-01-27T05:11:16.911Z,0.00
2019-01-27T05:12:16.874Z,0.00
2019-01-27T05:13:16.857Z,0.00
2019-01-27T05:14:16.832Z,0.00
2019-01-27T05:15:16.816Z,0.00
2019-01-27T05:16:16.811Z,0.00
2019-01-27T05:17:16.785Z,0.00
2019-01-27T05:18:16.756Z,0.00
2019-01-27T05:19:16.725Z,0.00
2019-01-27T05:20:16.709Z,0.00
2019-01-27T05:21:16.705Z,0.00
2019-01-27T05:22:17.242Z,0.00
2019-01-27T05:23:16.643Z,0.00
2019-01-27T05:24:16.620Z,0.00
2019-01-27T05:25:16.597Z,0.00
2019-01-27T05:26:16.578Z,0.00
2019-01-27T05:27:16.575Z,0.00
2019-01-27T05:28:16.541Z,0.00
2019-01-27T05:29:16.527Z,0.00
2019-01-27T05:30:16.512Z,0.00
2019-01-27T05:31:16.473Z,0.00
2019-01-27T05:32:16.466Z,0.00
2019-01-27T05:33:16.446Z,0.00
2019-01-27T05:34:16.414Z,0.00
2019-01-27T05:35:16.392Z,0.00
2019-01-27T05:36:16.365Z,0.00
2019-01-27T05:37:16.349Z,0.00
2019-01-27T05:38:16.350Z,0.00
2019-01-27T05:39:16.304Z,0.00
2019-01-27T05:40:16.289Z,0.00
2019-01-27T05:41:16.264Z,0.00
2019-01-27T05:42:16.745Z,0.00
2019-01-27T05:43:16.249Z,0.00
2019-01-27T05:44:16.202Z,0.00
2019-01-27T05:45:16.180Z,0.00
2019-01-27T05:46:16.160Z,0.00
2019-01-27T05:47:16.140Z,0.00
2019-01-27T05:48:16.114Z,0.00
2019-01-27T05:49:16.109Z,0.00
2019-01-27T05:50:16.075Z,0.00
2019-01-27T05:51:16.054Z,0.00
2019-01-27T05:52:16.050Z,0.00
2019-01-27T05:53:16.019Z,0.00
2019-01-27T05:54:16.155Z,0.00
2019-01-27T05:55:15.987Z,0.00
2019-01-27T05:56:15.952Z,0.00
2019-01-27T05:57:15.949Z,0.00
2019-01-27T05:58:15.959Z,0.00
2019-01-27T05:59:15.888Z,0.00
2019-01-27T06:00:15.873Z,0.00
2019-01-27T06:01:15.861Z,0.00
2019-01-27T06:02:15.835Z,0.00
2019-01-27T06:03:15.813Z,0.00
2019-01-27T06:04:17.749Z,0.00
2019-01-27T06:05:15.762Z,0.00
2019-01-27T06:06:15.769Z,0.00
2019-01-27T06:07:15.724Z,0.00
2019-01-27T06:08:15.715Z,0.00
2019-01-27T06:09:15.704Z,0.00
2019-01-27T06:10:15.658Z,0.00
2019-01-27T06:11:15.636Z,0.00
2019-01-27T06:12:15.620Z,0.00
2019-01-27T06:13:16.288Z,0.00
2019-01-27T06:14:15.583Z,0.00
2019-01-27T06:15:15.578Z,0.00
2019-01-27T06:16:15.538Z,0.00
2019-01-27T06:17:15.515Z,0.00
2019-01-27T06:18:15.516Z,0.00
2019-01-27T06:19:15.764Z,0.00
2019-01-27T06:20:15.486Z,0.00
2019-01-27T06:21:15.429Z,0.00
2019-01-27T06:22:15.410Z,0.00
2019-01-27T06:23:15.413Z,0.00
2019-01-27T06:24:15.374Z,0.00
2019-01-27T06:25:15.350Z,0.00
2019-01-27T06:26:15.333Z,0.00
2019-01-27T06:27:15.307Z,0.00
2019-01-27T06:28:15.285Z,0.00
2019-01-27T06:29:15.330Z,0.00
2019-01-27T06:30:15.245Z,0.00
2019-01-27T06:31:15.233Z,0.00
2019-01-27T06:32:15.204Z,0.00
2019-01-27T06:33:15.175Z,0.00
2019-01-27T06:34:15.164Z,0.00
2019-01-27T06:35:15.142Z,0.00
2019-01-27T06:36:15.134Z,0.00
2019-01-27T06:37:15.119Z,0.00
2019-01-27T06:38:15.073Z,0.00
2019-01-27T06:39:15.059Z,0.00
2019-01-27T06:40:15.029Z,0.00
2019-01-27T06:41:15.009Z,0.00
2019-01-27T06:42:15.007Z,0.00
2019-01-27T06:43:14.969Z,0.00
2019-01-27T06:44:15.016Z,0.00
2019-01-27T06:45:14.959Z,0.00
2019-01-27T06:46:14.967Z,0.00
2019-01-27T06:47:14.964Z,0.00
2019-01-27T06:48:15.757Z,0.00
2019-01-27T06:49:14.838Z,0.00
2019-01-27T06:50:14.829Z,0.00
2019-01-27T06:51:14.803Z,0.00
2019-01-27T06:52:14.786Z,0.00
2019-01-27T06:53:14.797Z,0.00
2019-01-27T06:54:14.738Z,0.00
2019-01-27T06:55:14.717Z,0.00
2019-01-27T06:56:14.717Z,0.00
2019-01-27T06:57:14.678Z,0.00
2019-01-27T06:58:14.657Z,0.00
2019-01-27T06:59:14.631Z,0.00
2019-01-27T07:00:14.625Z,0.00
2019-01-27T07:01:14.755Z,0.00
2019-01-27T07:02:14.586Z,0.00
2019-01-27T07:03:14.547Z,0.00
2019-01-27T07:04:14.529Z,0.00
2019-01-27T07:05:14.505Z,0.00
2019-01-27T07:06:14.516Z,0.00
2019-01-27T07:07:14.465Z,0.00
2019-01-27T07:08:14.444Z,0.00
2019-01-27T07:09:14.426Z,0.00
2019-01-27T07:10:14.427Z,0.00
2019-01-27T07:11:14.398Z,0.00
2019-01-27T07:12:14.359Z,0.00
2019-01-27T07:13:14.356Z,0.00
2019-01-27T07:14:14.318Z,0.00
2019-01-27T07:15:14.295Z,0.00
2019-01-27T07:16:14.281Z,0.00
2019-01-27T07:17:14.251Z,0.00
2019-01-27T07:18:14.760Z,0.00
2019-01-27T07:19:14.213Z,0.00
2019-01-27T07:20:14.196Z,0.00
2019-01-27T07:21:14.173Z,0.00
2019-01-27T07:22:14.151Z,0.00
2019-01-27T07:23:14.122Z,0.00
2019-01-27T07:24:14.120Z,0.00
2019-01-27T07:25:14.087Z,0.00
2019-01-27T07:26:14.063Z,5.63
2019-01-27T07:27:14.045Z,5.63
2019-01-27T07:28:14.038Z,5.63
2019-01-27T07:29:14.016Z,5.63
2019-01-27T07:30:13.987Z,5.63
2019-01-27T07:31:13.974Z,5.63
2019-01-27T07:32:13.942Z,5.63
2019-01-27T07:33:13.918Z,11.25
2019-01-27T07:34:13.914Z,11.25
2019-01-27T07:35:13.872Z,11.25
2019-01-27T07:36:13.870Z,11.25
2019-01-27T07:37:13.829Z,11.25
2019-01-27T07:38:13.826Z,11.25
2019-01-27T07:39:13.791Z,11.25
2019-01-27T07:40:13.785Z,11.25
2019-01-27T07:41:13.756Z,11.25
2019-01-27T07:42:13.727Z,16.88
2019-01-27T07:43:13.734Z,16.88
2019-01-27T07:44:13.690Z,16.88
2019-01-27T07:45:13.668Z,22.50
2019-01-27T07:46:13.673Z,16.88
2019-01-27T07:47:13.670Z,16.88
2019-01-27T07:48:13.606Z,16.88
2019-01-27T07:49:13.581Z,16.88
2019-01-27T07:50:13.558Z,22.50
2019-01-27T07:51:13.537Z,22.50
2019-01-27T07:52:13.534Z,22.50
2019-01-27T07:53:13.501Z,28.13
2019-01-27T07:54:13.472Z,28.13
2019-01-27T07:55:13.466Z,28.13
2019-01-27T07:56:13.438Z,28.13
2019-01-27T07:57:13.429Z,28.13
2019-01-27T07:58:13.408Z,22.50
2019-01-27T07:59:13.376Z,22.50
2019-01-27T08:00:13.356Z,16.88
2019-01-27T08:01:13.333Z,16.88
2019-01-27T08:02:13.325Z,22.50
2019-01-27T08:03:13.306Z,22.50
2019-01-27T08:04:13.266Z,22.50
2019-01-27T08:05:13.261Z,22.50
2019-01-27T08:06:13.226Z,28.13
2019-01-27T08:07:13.204Z,28.13
2019-01-27T08:08:13.204Z,28.13
2019-01-27T08:09:13.159Z,28.13
2019-01-27T08:10:13.140Z,28.13
2019-01-27T08:11:13.139Z,28.13
2019-01-27T08:12:13.095Z,22.50
2019-01-27T08:13:13.079Z,22.50
2019-01-27T08:14:13.072Z,28.13
2019-01-27T08:15:13.036Z,28.13
2019-01-27T08:16:13.034Z,22.50
2019-01-27T08:17:12.998Z,22.50
2019-01-27T08:18:12.981Z,28.13
2019-01-27T08:19:12.955Z,33.75
2019-01-27T08:20:12.931Z,39.38
2019-01-27T08:21:12.924Z,39.38
2019-01-27T08:22:12.905Z,39.38
2019-01-27T08:23:13.793Z,39.38
2019-01-27T08:24:12.850Z,39.38
2019-01-27T08:25:12.841Z,39.38
2019-01-27T08:26:12.810Z,45.00
2019-01-27T08:27:12.789Z,50.63
2019-01-27T08:28:13.268Z,61.88
2019-01-27T08:29:12.753Z,61.88
2019-01-27T08:30:12.731Z,56.25
2019-01-27T08:31:12.728Z,45.00
2019-01-27T08:32:12.681Z,39.38
2019-01-27T08:33:12.667Z,33.75
2019-01-27T08:34:12.641Z,39.38
2019-01-27T08:35:12.619Z,39.38
2019-01-27T08:36:12.604Z,45.00
2019-01-27T08:37:12.601Z,45.00
2019-01-27T08:38:12.562Z,45.00
2019-01-27T08:39:12.539Z,50.63
2019-01-27T08:40:12.516Z,56.25
2019-01-27T08:41:12.496Z,56.25
2019-01-27T08:42:13.273Z,61.88
2019-01-27T08:43:12.481Z,56.25
2019-01-27T08:44:12.445Z,50.63
2019-01-27T08:45:12.410Z,50.63
2019-01-27T08:46:12.395Z,56.25
2019-01-27T08:47:12.382Z,56.25
2019-01-27T08:48:12.355Z,56.25
2019-01-27T08:49:12.358Z,56.25
2019-01-27T08:50:12.312Z,56.25
2019-01-27T08:51:12.291Z,61.88
2019-01-27T08:52:12.280Z,61.88
2019-01-27T08:53:12.280Z,61.88
2019-01-27T08:54:12.245Z,61.88
2019-01-27T08:55:12.789Z,61.88
2019-01-27T08:56:12.191Z,61.88
2019-01-27T08:57:12.165Z,61.88
2019-01-27T08:58:12.150Z,61.88
2019-01-27T08:59:12.145Z,61.88
2019-01-27T09:00:12.104Z,61.88
2019-01-27T09:01:12.080Z,56.25
2019-01-27T09:02:12.073Z,56.25
2019-01-27T09:03:12.051Z,56.25
2019-01-27T09:04:12.049Z,56.25
2019-01-27T09:05:12.819Z,50.63
2019-01-27T09:06:11.977Z,50.63
2019-01-27T09:07:11.959Z,50.63
2019-01-27T09:08:11.949Z,45.00
2019-01-27T09:09:11.940Z,39.38
2019-01-27T09:10:11.898Z,45.00
2019-01-27T09:11:11.873Z,39.38
2019-01-27T09:12:11.885Z,45.00
2019-01-27T09:13:11.843Z,45.00
2019-01-27T09:14:11.835Z,50.63
2019-01-27T09:15:11.810Z,61.88
2019-01-27T09:16:11.772Z,73.13
2019-01-27T09:17:12.278Z,84.38
2019-01-27T09:18:11.737Z,90.00
2019-01-27T09:19:11.718Z,95.63
2019-01-27T09:20:11.705Z,95.63
2019-01-27T09:21:11.697Z,95.63
2019-01-27T09:22:11.655Z,95.63
2019-01-27T09:23:12.461Z,95.63
2019-01-27T09:24:11.612Z,95.63
2019-01-27T09:25:11.589Z,101.25
2019-01-27T09:26:11.573Z,106.88
2019-01-27T09:27:11.570Z,106.88
2019-01-27T09:28:11.529Z,101.25
2019-01-27T09:29:11.516Z,90.00
2019-01-27T09:30:11.492Z,78.75
2019-01-27T09:31:11.470Z,67.50
2019-01-27T09:32:11.471Z,67.50
2019-01-27T09:33:11.453Z,73.13
2019-01-27T09:34:13.240Z,67.50
2019-01-27T09:35:11.384Z,61.88
2019-01-27T09:36:11.368Z,50.63
2019-01-27T09:37:11.378Z,50.63
2019-01-27T09:38:11.325Z,50.63
2019-01-27T09:39:11.304Z,50.63
2019-01-27T09:40:11.290Z,50.63
2019-01-27T09:41:11.262Z,67.50
2019-01-27T09:42:11.256Z,67.50
2019-01-27T09:43:11.828Z,73.13
2019-01-27T09:44:11.213Z,67.50
2019-01-27T09:45:11.183Z,67.50
2019-01-27T09:46:11.636Z,73.13
2019-01-27T09:47:11.152Z,73.13
2019-01-27T09:48:11.120Z,90.00
2019-01-27T09:49:11.117Z,84.38
2019-01-27T09:50:11.084Z,84.38
2019-01-27T09:51:11.063Z,78.75
2019-01-27T09:52:11.047Z,78.75
2019-01-27T09:53:11.028Z,90.00
2019-01-27T09:54:11.019Z,95.63
2019-01-27T09:55:10.996Z,90.00
2019-01-27T09:56:10.977Z,84.38
2019-01-27T09:57:12.105Z,90.00
2019-01-27T09:58:10.938Z,84.38
2019-01-27T09:59:10.926Z,90.00
2019-01-27T10:00:10.884Z,84.38
2019-01-27T10:01:10.860Z,73.13
2019-01-27T10:02:10.846Z,61.88
2019-01-27T10:03:10.818Z,56.25
2019-01-27T10:04:10.817Z,61.88
2019-01-27T10:05:10.788Z,61.88
2019-01-27T10:06:10.783Z,56.25
2019-01-27T10:07:10.734Z,84.38
2019-01-27T10:08:10.715Z,84.38
2019-01-27T10:09:10.693Z,73.13
2019-01-27T10:10:10.677Z,84.38
2019-01-27T10:11:10.673Z,84.38
2019-01-27T10:12:10.637Z,78.75
2019-01-27T10:13:10.630Z,73.13
2019-01-27T10:14:10.592Z,67.50
2019-01-27T10:15:10.588Z,61.88
2019-01-27T10:16:10.555Z,61.88
2019-01-27T10:17:10.956Z,56.25
2019-01-27T10:18:10.539Z,61.88
2019-01-27T10:19:10.488Z,73.13
2019-01-27T10:20:10.471Z,56.25
2019-01-27T10:21:10.456Z,61.88
2019-01-27T10:22:10.431Z,67.50
2019-01-27T10:23:10.414Z,61.88
2019-01-27T10:24:10.405Z,84.38
2019-01-27T10:25:15.951Z,84.38
2019-01-27T10:26:10.347Z,84.38
2019-01-27T10:27:10.338Z,95.63
2019-01-27T10:28:10.308Z,90.00
2019-01-27T10:29:10.608Z,90.00
2019-01-27T10:30:10.280Z,90.00
2019-01-27T10:31:10.271Z,101.25
2019-01-27T10:32:10.231Z,95.63
2019-01-27T10:33:10.203Z,95.63
2019-01-27T10:34:10.189Z,78.75
2019-01-27T10:35:10.181Z,61.88
2019-01-27T10:36:10.153Z,56.25
2019-01-27T10:37:12.273Z,50.63
2019-01-27T10:38:10.098Z,56.25
2019-01-27T10:39:10.079Z,67.50
2019-01-27T10:40:10.581Z,78.75
2019-01-27T10:41:10.040Z,95.63
2019-01-27T10:42:10.040Z,106.88
2019-01-27T10:43:10.000Z,123.75
2019-01-27T10:44:09.975Z,140.63
2019-01-27T10:45:09.952Z,146.25
2019-01-27T10:46:09.930Z,146.25
2019-01-27T10:47:09.923Z,157.50
2019-01-27T10:48:09.908Z,157.50
2019-01-27T10:49:09.876Z,157.50
2019-01-27T10:50:09.862Z,146.25
2019-01-27T10:51:09.836Z,123.75
2019-01-27T10:52:09.837Z,101.25
2019-01-27T10:53:09.785Z,118.13
2019-01-27T10:54:09.774Z,95.63
2019-01-27T10:55:09.748Z,106.88
2019-01-27T10:56:09.724Z,84.38
2019-01-27T10:57:09.708Z,106.88
2019-01-27T10:58:09.708Z,73.13
2019-01-27T10:59:09.663Z,61.88
2019-01-27T11:00:09.653Z,67.50
2019-01-27T11:01:09.643Z,73.13
2019-01-27T11:02:09.603Z,73.13
2019-01-27T11:03:09.617Z,84.38
2019-01-27T11:04:09.560Z,84.38
2019-01-27T11:05:09.559Z,73.13
2019-01-27T11:06:09.520Z,67.50
2019-01-27T11:07:09.545Z,61.88
2019-01-27T11:08:09.562Z,78.75
2019-01-27T11:09:09.459Z,84.38
2019-01-27T11:10:09.459Z,95.63
2019-01-27T11:11:09.446Z,106.88
2019-01-27T11:12:09.428Z,90.00
2019-01-27T11:13:09.374Z,101.25
2019-01-27T11:14:09.353Z,101.25
2019-01-27T11:15:09.339Z,84.38
2019-01-27T11:16:09.327Z,90.00
2019-01-27T11:17:09.297Z,101.25
2019-01-27T11:18:09.275Z,84.38
2019-01-27T11:19:09.284Z,112.50
2019-01-27T11:20:09.231Z,112.50
2019-01-27T11:21:09.264Z,106.88
2019-01-27T11:22:09.269Z,101.25
2019-01-27T11:23:09.163Z,78.75
2019-01-27T11:24:09.152Z,78.75
2019-01-27T11:25:09.130Z,73.13
2019-01-27T11:26:09.105Z,90.00
2019-01-27T11:27:09.107Z,101.25
2019-01-27T11:28:09.070Z,106.88
2019-01-27T11:29:09.050Z,90.00
2019-01-27T11:30:09.028Z,101.25
2019-01-27T11:31:09.003Z,84.38
2019-01-27T11:32:08.993Z,84.38
2019-01-27T11:33:08.992Z,78.75
2019-01-27T11:34:08.946Z,90.00
2019-01-27T11:35:08.922Z,67.50
2019-01-27T11:36:08.899Z,61.88
2019-01-27T11:37:08.881Z,67.50
2019-01-27T11:38:08.889Z,67.50
2019-01-27T11:39:08.846Z,67.50
2019-01-27T11:40:08.818Z,73.13
2019-01-27T11:41:08.818Z,61.88
2019-01-27T11:43:50.790Z,61.88
2019-01-27T11:44:50.795Z,61.88
2019-01-27T11:45:50.727Z,56.25
2019-01-27T11:46:50.717Z,56.25
2019-01-27T11:47:50.682Z,78.75
2019-01-27T11:48:50.654Z,67.50
2019-01-27T11:49:50.656Z,73.13
2019-01-27T11:50:50.622Z,73.13
2019-01-27T11:51:50.602Z,73.13
2019-01-27T11:52:50.585Z,67.50
2019-01-27T11:53:50.554Z,61.88
2019-01-27T11:54:50.557Z,67.50
2019-01-27T11:55:50.546Z,67.50
2019-01-27T11:56:50.512Z,67.50
2019-01-27T11:57:50.477Z,61.88
2019-01-27T11:58:50.452Z,67.50
2019-01-27T11:59:50.430Z,73.13
2019-01-27T12:00:50.432Z,84.38
2019-01-27T12:01:50.404Z,84.38
2019-01-27T12:02:50.368Z,78.75
2019-01-27T12:03:50.345Z,67.50
2019-01-27T12:04:50.333Z,50.63
2019-01-27T12:05:50.307Z,56.25
2019-01-27T12:06:50.302Z,50.63
2019-01-27T12:07:50.264Z,56.25
2019-01-27T12:08:50.242Z,56.25
2019-01-27T12:09:50.217Z,56.25
2019-01-27T12:10:50.199Z,67.50
2019-01-27T12:11:50.171Z,67.50
2019-01-27T12:12:50.182Z,56.25
2019-01-27T12:13:50.157Z,56.25
2019-01-27T12:14:50.116Z,50.63
2019-01-27T12:15:50.094Z,50.63
2019-01-27T12:16:50.085Z,33.75
2019-01-27T12:17:50.070Z,33.75
2019-01-27T12:18:50.031Z,56.25
2019-01-27T12:19:50.028Z,56.25
2019-01-27T12:20:49.988Z,56.25
2019-01-27T12:21:49.970Z,50.63
2019-01-27T12:22:49.987Z,50.63
2019-01-27T12:23:49.947Z,56.25
2019-01-27T12:24:49.907Z,50.63
2019-01-27T12:25:49.894Z,67.50
2019-01-27T12:26:49.860Z,61.88
2019-01-27T12:27:49.838Z,84.38
2019-01-27T12:28:49.814Z,90.00
2019-01-27T12:29:49.799Z,123.75
2019-01-27T12:30:49.795Z,140.63
2019-01-27T12:31:49.752Z,135.00
2019-01-27T12:32:49.744Z,123.75
2019-01-27T12:33:49.715Z,101.25
2019-01-27T12:34:49.694Z,112.50
2019-01-27T12:35:49.669Z,118.13
2019-01-27T12:36:49.670Z,174.38
2019-01-27T12:37:49.626Z,163.13
2019-01-27T12:38:49.610Z,129.38
2019-01-27T12:39:49.588Z,106.88
2019-01-27T12:40:49.565Z,84.38
2019-01-27T12:41:49.556Z,95.63
2019-01-27T12:42:49.536Z,95.63
2019-01-27T12:43:49.515Z,95.63
2019-01-27T12:44:49.510Z,101.25
2019-01-27T12:45:49.468Z,157.50
2019-01-27T12:46:49.444Z,191.25
2019-01-27T12:47:49.431Z,320.63
2019-01-27T12:48:49.404Z,309.38
2019-01-27T12:49:49.377Z,247.50
2019-01-27T12:50:49.404Z,258.75
2019-01-27T12:51:49.335Z,264.38
2019-01-27T12:52:49.336Z,258.75
2019-01-27T12:53:49.347Z,281.25
2019-01-27T12:54:49.307Z,241.88
2019-01-27T12:55:49.273Z,174.38
2019-01-27T12:56:49.245Z,112.50
2019-01-27T12:57:49.224Z,135.00
2019-01-27T12:58:49.201Z,106.88
2019-01-27T12:59:49.174Z,118.13
2019-01-27T13:00:49.178Z,95.63
2019-01-27T13:01:49.147Z,112.50
2019-01-27T13:02:49.123Z,106.88
2019-01-27T13:03:49.119Z,90.00
2019-01-27T13:04:49.077Z,78.75
2019-01-27T13:05:49.079Z,67.50
2019-01-27T13:06:49.044Z,56.25